Time;durP1;ratioP1;P1;durP2;ratioP2;P2;SDS_P1;SDS_P2;PMS_P1;PMS_P2;Temp;Humidity;BMP_temperature;BMP_pressure;BME280_temperature;BME280_humidity;BME280_pressure;Samples;Min_cycle;Max_cycle;Signal;HPM_P1;HPM_P2
2022/10/12 00:02:19;;;;;;;16.58;10.50;;;12.10;99.90;;;;;;5045470;28;20235;-78
2022/10/12 00:05:14;;;;;;;16.33;9.45;;;12.10;99.90;;;;;;5041694;28;20238;-77
2022/10/12 00:07:44;;;;;;;15.07;9.95;;;12.10;99.90;;;;;;5038790;28;20232;-76
2022/10/12 00:10:11;;;;;;;11.85;8.32;;;12.00;99.90;;;;;;5052162;28;20227;-76
2022/10/12 00:12:38;;;;;;;10.90;8.10;;;12.00;99.90;;;;;;5042097;28;20277;-78
2022/10/12 00:15:06;;;;;;;11.18;8.93;;;12.00;99.90;;;;;;5049999;28;20339;-77
2022/10/12 00:17:35;;;;;;;13.98;9.63;;;11.90;99.90;;;;;;5048539;28;20260;-77
2022/10/12 00:20:02;;;;;;;15.32;9.90;;;12.00;99.90;;;;;;5044818;28;20878;-76
2022/10/12 00:22:35;;;;;;;14.73;9.52;;;11.90;99.90;;;;;;5053725;28;20240;-78
2022/10/12 00:25:05;;;;;;;14.05;10.05;;;11.90;99.90;;;;;;5046229;28;20224;-77
2022/10/12 00:27:32;;;;;;;14.10;11.32;;;12.00;99.90;;;;;;5040229;28;20241;-77
2022/10/12 00:29:59;;;;;;;13.50;11.20;;;11.90;99.90;;;;;;5049101;28;20225;-77
2022/10/12 00:32:26;;;;;;;14.57;11.07;;;11.90;99.90;;;;;;5042343;28;20235;-76
2022/10/12 00:34:53;;;;;;;15.93;10.25;;;11.90;99.90;;;;;;5035321;28;20304;-77
2022/10/12 00:37:20;;;;;;;16.95;10.02;;;11.90;99.90;;;;;;5049231;28;20678;-76
2022/10/12 00:39:50;;;;;;;16.23;10.27;;;11.90;99.90;;;;;;5057183;28;20232;-77
2022/10/12 00:42:22;;;;;;;18.92;11.00;;;11.90;99.90;;;;;;5052692;28;20232;-77
2022/10/12 00:44:51;;;;;;;14.88;10.70;;;11.80;99.90;;;;;;5034486;28;20228;-77
2022/10/12 00:47:24;;;;;;;15.88;9.73;;;11.80;99.90;;;;;;5035204;28;20263;-76
2022/10/12 00:49:59;;;;;;;13.30;10.02;;;11.80;99.90;;;;;;5038334;28;20621;-78
2022/10/12 00:52:35;;;;;;;16.15;10.52;;;11.80;99.90;;;;;;5050738;28;20236;-77
2022/10/12 00:55:05;;;;;;;14.77;11.52;;;11.80;99.90;;;;;;5040089;28;20216;-77
2022/10/12 00:57:33;;;;;;;18.77;10.18;;;11.80;99.90;;;;;;5041179;28;20232;-77
2022/10/12 01:00:07;;;;;;;14.32;10.18;;;11.70;99.90;;;;;;5046780;28;20217;-77
2022/10/12 01:02:38;;;;;;;12.65;10.48;;;11.70;99.90;;;;;;5039141;28;20254;-76
2022/10/12 01:05:10;;;;;;;18.15;10.93;;;11.70;99.90;;;;;;5039935;28;20225;-78
2022/10/12 01:07:38;;;;;;;15.27;11.32;;;11.70;99.90;;;;;;5035467;28;20574;-76
2022/10/12 01:10:07;;;;;;;13.52;10.45;;;11.70;99.90;;;;;;5044803;28;20249;-76
2022/10/12 01:12:35;;;;;;;17.48;10.68;;;11.60;99.90;;;;;;5036325;28;20303;-76
2022/10/12 01:15:04;;;;;;;15.18;8.95;;;11.60;99.90;;;;;;5041630;28;20224;-77
2022/10/12 01:17:52;;;;;;;;;;;;;;;;;;;;;
2022/10/12 01:20:41;;;;;;;13.98;9.63;;;11.60;99.90;;;;;;5033601;28;20226;-77
2022/10/12 01:23:41;;;;;;;13.98;9.65;;;11.60;99.90;;;;;;5031399;28;20352;-77
2022/10/12 01:26:36;;;;;;;14.52;10.30;;;11.60;99.90;;;;;;5039287;28;20233;-77
2022/10/12 01:29:17;;;;;;;22.08;8.88;;;11.60;99.90;;;;;;5037800;28;20225;-77
2022/10/12 01:31:53;;;;;;;13.50;9.23;;;11.60;99.90;;;;;;5045014;28;20303;-77
2022/10/12 01:34:27;;;;;;;23.35;10.18;;;11.60;99.90;;;;;;5042259;28;20228;-76
2022/10/12 01:37:01;;;;;;;17.33;10.13;;;11.50;99.90;;;;;;5047920;28;20224;-77
2022/10/12 01:39:35;;;;;;;10.35;9.15;;;11.50;99.90;;;;;;5036628;28;20221;-76
2022/10/12 01:42:08;;;;;;;13.48;8.80;;;11.50;99.90;;;;;;5043524;28;20244;-76
2022/10/12 01:44:35;;;;;;;12.00;8.38;;;11.50;99.90;;;;;;5056791;28;20254;-77
2022/10/12 01:47:06;;;;;;;17.73;10.43;;;11.50;99.90;;;;;;5045353;28;20236;-76
2022/10/12 01:49:37;;;;;;;16.10;9.23;;;11.50;99.90;;;;;;5038094;28;20217;-78
2022/10/12 01:52:29;;;;;;;13.48;8.48;;;11.50;99.90;;;;;;5043181;28;20743;-76
2022/10/12 01:55:16;;;;;;;11.63;8.52;;;11.50;99.90;;;;;;5032229;28;20231;-77
2022/10/12 01:57:55;;;;;;;15.52;9.40;;;11.50;99.90;;;;;;5046581;28;20651;-77
2022/10/12 02:00:23;;;;;;;15.60;10.10;;;11.40;99.90;;;;;;5039186;28;20301;-76
2022/10/12 02:02:57;;;;;;;15.10;8.82;;;11.40;99.90;;;;;;5031462;28;20229;-76
2022/10/12 02:05:31;;;;;;;11.02;8.52;;;11.40;99.90;;;;;;5027313;28;20226;-77
2022/10/12 02:08:06;;;;;;;14.23;10.07;;;11.40;99.90;;;;;;5031693;28;20217;-77
2022/10/12 02:10:38;;;;;;;13.13;9.40;;;11.40;99.90;;;;;;5032053;28;20579;-77
2022/10/12 02:13:08;;;;;;;15.63;9.45;;;11.30;99.90;;;;;;5049578;28;20251;-77
2022/10/12 02:15:38;;;;;;;14.95;9.73;;;11.30;99.90;;;;;;5019140;28;20290;-76
2022/10/12 02:18:08;;;;;;;13.50;9.07;;;11.30;99.90;;;;;;5040306;28;20303;-77
2022/10/12 02:20:40;;;;;;;18.15;10.43;;;11.30;99.90;;;;;;5048741;28;20252;-77
2022/10/12 02:23:10;;;;;;;16.90;10.10;;;11.30;99.90;;;;;;5050855;28;20440;-78
2022/10/12 02:25:52;;;;;;;16.92;10.30;;;11.30;99.90;;;;;;5050450;28;22944;-77
2022/10/12 02:28:24;;;;;;;15.65;9.50;;;11.20;99.90;;;;;;5040252;28;20308;-77
2022/10/12 02:31:15;;;;;;;10.35;8.27;;;11.20;99.90;;;;;;5051065;28;20892;-77
2022/10/12 02:33:50;;;;;;;15.25;8.50;;;11.20;99.90;;;;;;5044611;28;20220;-76
2022/10/12 02:36:26;;;;;;;13.50;9.20;;;11.20;99.90;;;;;;5069497;28;20615;-77
2022/10/12 02:38:56;;;;;;;11.98;8.57;;;11.20;99.90;;;;;;5072155;28;20314;-76
2022/10/12 02:41:29;;;;;;;11.02;9.60;;;11.20;99.90;;;;;;5063853;28;20312;-77
2022/10/12 02:44:03;;;;;;;15.75;8.65;;;11.30;99.90;;;;;;5072301;28;20319;-77
2022/10/12 02:46:35;;;;;;;13.38;8.07;;;11.30;99.90;;;;;;5071445;28;20242;-77
2022/10/12 02:49:06;;;;;;;7.90;7.10;;;11.30;99.90;;;;;;5072690;28;20643;-77
2022/10/12 02:51:34;;;;;;;10.82;7.53;;;11.30;99.90;;;;;;5072330;28;20231;-77
2022/10/12 02:54:03;;;;;;;15.68;7.53;;;11.40;99.90;;;;;;5062481;28;20239;-78
2022/10/12 02:56:32;;;;;;;13.02;7.50;;;11.40;99.90;;;;;;5072774;28;20227;-77
2022/10/12 02:58:59;;;;;;;11.30;7.35;;;11.40;99.90;;;;;;5071968;28;20231;-77
2022/10/12 03:01:27;;;;;;;10.23;6.25;;;11.50;99.90;;;;;;5062384;28;20232;-77
2022/10/12 03:03:54;;;;;;;9.73;6.80;;;11.40;99.90;;;;;;5067591;28;20311;-77
2022/10/12 03:06:22;;;;;;;13.00;8.75;;;11.50;99.90;;;;;;5052897;28;20248;-77
2022/10/12 03:08:50;;;;;;;13.75;7.90;;;11.50;99.90;;;;;;5052171;28;20590;-77
2022/10/12 03:11:19;;;;;;;10.63;7.38;;;11.50;99.90;;;;;;5045716;28;20319;-77
2022/10/12 03:13:46;;;;;;;12.48;7.38;;;11.50;99.90;;;;;;5048471;28;20302;-77
2022/10/12 03:16:19;;;;;;;12.20;7.25;;;11.50;99.90;;;;;;5054632;28;20240;-77
2022/10/12 03:18:46;;;;;;;12.15;7.95;;;11.50;99.90;;;;;;5055800;28;20285;-76
2022/10/12 03:21:14;;;;;;;10.20;7.20;;;11.50;99.90;;;;;;5054273;28;20255;-77
2022/10/12 03:23:42;;;;;;;12.85;7.70;;;11.40;99.90;;;;;;5056016;28;20599;-78
2022/10/12 03:26:09;;;;;;;12.10;7.47;;;11.40;99.90;;;;;;5054947;28;20228;-76
2022/10/12 03:28:41;;;;;;;13.35;8.25;;;11.40;99.90;;;;;;5056015;28;20240;-77
2022/10/12 03:31:08;;;;;;;11.07;7.40;;;11.40;99.90;;;;;;5055371;28;20248;-77
2022/10/12 03:33:35;;;;;;;11.70;7.22;;;11.30;99.90;;;;;;5055848;28;20220;-77
2022/10/12 03:36:02;;;;;;;9.63;6.82;;;11.30;99.90;;;;;;5059206;28;20244;-77
2022/10/12 03:38:29;;;;;;;9.43;6.85;;;11.30;99.90;;;;;;5075271;28;20220;-77
2022/10/12 03:41:00;;;;;;;10.55;7.18;;;11.30;99.90;;;;;;5070995;28;20245;-77
2022/10/12 03:43:27;;;;;;;10.45;6.95;;;11.30;99.90;;;;;;5055576;28;20260;-77
2022/10/12 03:45:54;;;;;;;7.88;6.30;;;11.30;99.90;;;;;;5055191;28;20300;-77
2022/10/12 03:48:23;;;;;;;10.18;7.15;;;11.30;99.90;;;;;;5055526;28;20303;-76
2022/10/12 03:50:51;;;;;;;10.75;7.28;;;11.30;99.90;;;;;;5055007;28;20311;-77
2022/10/12 03:53:20;;;;;;;10.57;7.47;;;11.30;99.90;;;;;;5055058;28;20256;-78
2022/10/12 03:55:47;;;;;;;13.15;7.10;;;11.30;99.90;;;;;;5054883;28;20278;-77
2022/10/12 03:58:16;;;;;;;8.68;6.68;;;11.30;99.90;;;;;;5055125;28;20231;-77
2022/10/12 04:00:43;;;;;;;10.77;7.05;;;11.30;99.90;;;;;;5055340;28;20307;-77
2022/10/12 04:03:10;;;;;;;9.45;6.90;;;11.30;99.90;;;;;;5054650;28;20241;-77
2022/10/12 04:05:38;;;;;;;11.90;6.70;;;11.40;99.90;;;;;;5044924;28;20728;-77
2022/10/12 04:08:07;;;;;;;9.65;6.68;;;11.30;99.90;;;;;;5054315;28;20236;-77
2022/10/12 04:10:34;;;;;;;13.25;6.72;;;11.30;99.90;;;;;;5054719;28;20589;-77
2022/10/12 04:13:01;;;;;;;13.50;7.50;;;11.30;99.90;;;;;;5054366;28;20255;-77
2022/10/12 04:15:29;;;;;;;12.48;7.30;;;11.20;99.90;;;;;;5055144;28;20312;-77
2022/10/12 04:18:00;;;;;;;11.45;6.75;;;11.20;99.90;;;;;;5055186;28;20729;-77
2022/10/12 04:20:27;;;;;;;10.27;7.10;;;11.20;99.90;;;;;;5054095;28;20224;-77
2022/10/12 04:22:54;;;;;;;10.90;7.65;;;11.20;99.90;;;;;;5055410;28;20316;-77
2022/10/12 04:25:21;;;;;;;10.43;8.43;;;11.10;99.90;;;;;;5053856;28;20573;-78
2022/10/12 04:27:48;;;;;;;12.75;7.85;;;11.20;99.90;;;;;;5054811;28;20224;-78
2022/10/12 04:30:15;;;;;;;12.77;8.15;;;11.10;99.90;;;;;;5054428;28;20263;-77
2022/10/12 04:32:46;;;;;;;13.38;9.00;;;11.10;99.90;;;;;;5054750;28;20315;-77
2022/10/12 04:35:13;;;;;;;15.45;9.32;;;11.20;99.90;;;;;;5062536;28;20308;-78
2022/10/12 04:37:41;;;;;;;14.65;8.23;;;11.20;99.90;;;;;;5072394;28;20220;-77
2022/10/12 04:40:10;;;;;;;17.00;8.93;;;11.10;99.90;;;;;;5072794;28;20223;-77
2022/10/12 04:42:37;;;;;;;13.10;9.70;;;11.10;99.90;;;;;;5036846;28;20278;-77
2022/10/12 04:45:05;;;;;;;15.32;8.77;;;11.10;99.90;;;;;;5053964;28;20290;-77
2022/10/12 04:47:34;;;;;;;11.57;8.05;;;11.10;99.90;;;;;;5053816;28;20289;-77
2022/10/12 04:50:05;;;;;;;13.27;9.05;;;11.10;99.90;;;;;;5054320;28;20231;-78
2022/10/12 04:52:32;;;;;;;19.75;9.15;;;11.10;99.90;;;;;;5053152;28;20224;-77
2022/10/12 04:55:07;;;;;;;9.43;8.35;;;11.10;99.90;;;;;;5054359;28;20315;-77
2022/10/12 04:57:34;;;;;;;10.93;8.73;;;11.10;99.90;;;;;;5044799;28;20231;-77
2022/10/12 05:00:01;;;;;;;14.85;9.55;;;11.10;99.90;;;;;;5055846;28;20248;-77
2022/10/12 05:02:28;;;;;;;15.48;8.85;;;11.10;99.90;;;;;;5054932;28;20278;-77
2022/10/12 05:04:57;;;;;;;14.80;8.32;;;11.00;99.90;;;;;;5055350;28;20224;-77
2022/10/12 05:07:25;;;;;;;13.77;9.77;;;11.10;99.90;;;;;;5054472;28;20725;-77
2022/10/12 05:09:52;;;;;;;12.30;8.95;;;11.00;99.90;;;;;;5054055;28;20666;-76
2022/10/12 05:12:19;;;;;;;12.38;9.80;;;11.00;99.90;;;;;;5054892;28;20228;-76
2022/10/12 05:14:46;;;;;;;20.15;10.25;;;11.00;99.90;;;;;;5053620;28;20208;-76
2022/10/12 05:17:13;;;;;;;12.68;9.02;;;11.00;99.90;;;;;;5042637;28;20732;-76
2022/10/12 05:19:40;;;;;;;12.85;8.10;;;11.00;99.90;;;;;;5043417;28;20570;-77
2022/10/12 05:22:07;;;;;;;13.45;9.43;;;11.00;99.90;;;;;;5044304;28;20290;-76
2022/10/12 05:24:36;;;;;;;11.50;9.25;;;11.00;99.90;;;;;;5052546;28;20233;-76
2022/10/12 05:29:48;;;;;;;14.05;9.65;;;11.00;99.90;;;;;;5051724;28;20224;-76
2022/10/12 05:32:17;;;;;;;19.15;10.35;;;11.00;99.90;;;;;;5053288;28;20296;-78
2022/10/12 05:35:01;;;;;;;17.65;10.40;;;11.00;99.90;;;;;;5047363;28;20256;-78
2022/10/12 05:37:32;;;;;;;13.15;9.85;;;11.00;99.90;;;;;;5072668;28;20234;-76
2022/10/12 05:40:00;;;;;;;12.98;10.30;;;11.00;99.90;;;;;;5073278;28;20232;-76
2022/10/12 05:42:28;;;;;;;19.90;10.82;;;11.00;99.90;;;;;;5046685;28;20296;-77
2022/10/12 05:44:55;;;;;;;14.52;10.50;;;11.00;99.90;;;;;;5053814;28;20600;-77
2022/10/12 05:47:22;;;;;;;13.45;10.32;;;11.00;99.90;;;;;;5044643;28;20731;-77
2022/10/12 05:49:49;;;;;;;19.50;11.25;;;11.00;99.90;;;;;;5054099;28;20281;-78
2022/10/12 05:52:19;;;;;;;17.30;10.63;;;11.00;99.90;;;;;;5051270;28;20670;-78
2022/10/12 05:54:46;;;;;;;13.75;9.95;;;11.00;99.90;;;;;;5054105;28;20228;-77
2022/10/12 05:57:14;;;;;;;15.90;10.23;;;11.00;99.90;;;;;;5052520;28;20311;-77
2022/10/12 05:59:41;;;;;;;14.45;10.00;;;11.00;99.90;;;;;;5053260;28;20225;-76
2022/10/12 06:02:18;;;;;;;15.40;9.70;;;11.00;99.90;;;;;;5041963;28;20229;-77
2022/10/12 06:04:45;;;;;;;21.13;13.65;;;11.00;99.90;;;;;;5042381;28;20221;-77
2022/10/12 06:07:13;;;;;;;22.27;14.10;;;11.00;99.90;;;;;;5052757;28;20225;-76
2022/10/12 06:09:40;;;;;;;18.95;12.10;;;10.90;99.90;;;;;;5052076;28;20216;-76
2022/10/12 06:12:08;;;;;;;21.88;12.57;;;10.90;99.90;;;;;;5053601;28;20296;-76
2022/10/12 06:14:36;;;;;;;14.02;10.35;;;11.00;99.90;;;;;;5046275;28;20236;-76
2022/10/12 06:17:03;;;;;;;18.90;10.70;;;11.00;99.90;;;;;;5053572;28;20229;-75
2022/10/12 06:19:31;;;;;;;14.70;9.45;;;11.00;99.90;;;;;;5043822;28;20303;-78
2022/10/12 06:22:01;;;;;;;15.10;9.35;;;11.00;99.90;;;;;;5053390;28;20239;-77
2022/10/12 06:24:30;;;;;;;10.38;9.32;;;11.00;99.90;;;;;;5042332;28;20224;-78
2022/10/12 06:26:57;;;;;;;15.43;10.57;;;11.10;99.90;;;;;;5052815;28;20697;-78
2022/10/12 06:29:24;;;;;;;12.90;10.27;;;11.10;99.90;;;;;;5052546;28;20243;-78
2022/10/12 06:31:53;;;;;;;17.92;9.73;;;11.10;99.90;;;;;;5042632;28;20244;-77
2022/10/12 06:34:20;;;;;;;10.13;8.73;;;11.10;99.90;;;;;;5052773;28;20213;-78
2022/10/12 06:36:47;;;;;;;14.93;9.23;;;11.10;99.90;;;;;;5073085;28;20230;-77
2022/10/12 06:39:14;;;;;;;12.63;9.40;;;11.10;99.90;;;;;;5073429;28;20228;-77
2022/10/12 06:41:45;;;;;;;12.70;9.13;;;11.10;99.90;;;;;;5073037;28;20228;-78
2022/10/12 06:44:12;;;;;;;11.65;9.27;;;11.20;99.90;;;;;;5073202;28;20242;-77
2022/10/12 06:46:40;;;;;;;12.73;9.23;;;11.20;99.90;;;;;;5076825;28;20311;-77
2022/10/12 06:49:10;;;;;;;15.23;8.73;;;11.20;99.90;;;;;;5077073;28;20251;-76
2022/10/12 06:51:37;;;;;;;13.48;9.75;;;11.30;99.90;;;;;;5074938;28;20227;-77
2022/10/12 06:54:04;;;;;;;13.23;8.35;;;11.30;99.90;;;;;;5076476;28;20678;-77
2022/10/12 06:56:44;;;;;;;12.43;9.45;;;11.40;99.90;;;;;;5065684;28;20621;-77
2022/10/12 06:59:13;;;;;;;13.13;9.18;;;11.40;99.90;;;;;;5076849;28;20223;-77
2022/10/12 07:01:40;;;;;;;11.15;8.35;;;11.50;99.90;;;;;;5066021;28;20311;-77
2022/10/12 07:04:11;;;;;;;11.60;8.15;;;11.50;99.90;;;;;;5076306;28;20234;-77
2022/10/12 07:06:38;;;;;;;8.68;7.80;;;11.60;99.90;;;;;;5076408;28;20220;-77
2022/10/12 07:09:05;;;;;;;16.73;9.85;;;11.60;99.90;;;;;;5075982;28;20669;-77
2022/10/12 07:11:53;;;;;;;11.13;9.13;;;11.70;99.90;;;;;;5075807;28;20220;-77
2022/10/12 07:14:20;;;;;;;16.90;9.82;;;11.70;99.90;;;;;;5057042;28;20295;-76
2022/10/12 07:16:47;;;;;;;11.02;8.32;;;11.80;99.90;;;;;;5045829;28;20304;-76
2022/10/12 07:19:15;;;;;;;13.98;7.60;;;11.80;99.90;;;;;;5055178;28;20224;-76
2022/10/12 07:21:45;;;;;;;9.60;7.97;;;11.90;99.90;;;;;;5056432;28;20324;-77
2022/10/12 07:24:15;;;;;;;17.17;9.57;;;12.00;99.90;;;;;;5047926;28;20220;-77
2022/10/12 07:26:42;;;;;;;13.25;9.00;;;12.00;99.90;;;;;;5055888;28;20550;-76
2022/10/12 07:29:09;;;;;;;12.48;9.07;;;12.10;99.90;;;;;;5046250;28;20303;-77
2022/10/12 07:31:41;;;;;;;12.00;9.10;;;12.10;99.90;;;;;;5046146;28;20311;-77
2022/10/12 07:34:10;;;;;;;11.13;7.30;;;12.20;99.90;;;;;;5055430;28;20235;-77
2022/10/12 07:36:43;;;;;;;13.23;8.35;;;12.20;99.90;;;;;;5067173;28;20796;-77
2022/10/12 07:39:15;;;;;;;13.48;8.73;;;12.30;99.90;;;;;;5075362;28;20228;-77
2022/10/12 07:41:43;;;;;;;9.73;7.13;;;12.30;99.90;;;;;;5075377;28;20330;-78
2022/10/12 07:44:15;;;;;;;8.32;7.47;;;12.40;99.90;;;;;;5075975;28;20220;-77
2022/10/12 07:46:45;;;;;;;11.50;8.93;;;12.40;99.90;;;;;;5074285;28;20250;-76
2022/10/12 07:49:14;;;;;;;8.77;7.65;;;12.50;99.90;;;;;;5075905;28;20235;-77
2022/10/12 07:51:42;;;;;;;8.55;7.60;;;12.60;99.90;;;;;;5074958;28;20235;-77
2022/10/12 07:54:10;;;;;;;8.10;6.88;;;12.60;99.90;;;;;;5075312;28;20315;-77
2022/10/12 07:56:37;;;;;;;8.75;7.25;;;12.70;99.90;;;;;;5074782;28;20216;-76
2022/10/12 07:59:07;;;;;;;13.10;8.35;;;12.70;99.90;;;;;;5046169;28;20255;-76
2022/10/12 08:01:37;;;;;;;11.77;7.82;;;12.70;99.90;;;;;;5054224;28;20612;-76
2022/10/12 08:04:04;;;;;;;8.43;7.10;;;12.80;99.90;;;;;;5035126;28;20224;-76
2022/10/12 08:06:33;;;;;;;11.82;8.52;;;12.90;99.90;;;;;;5054986;28;20244;-76
2022/10/12 08:09:04;;;;;;;16.42;9.32;;;12.90;99.90;;;;;;5054372;28;20224;-76
2022/10/12 08:11:31;;;;;;;13.05;7.38;;;13.00;99.90;;;;;;5053698;28;20224;-76
2022/10/12 08:14:00;;;;;;;10.23;6.57;;;13.10;99.90;;;;;;5054334;28;20625;-76
2022/10/12 08:16:30;;;;;;;8.45;6.20;;;13.10;99.90;;;;;;5054901;28;20635;-76
2022/10/12 08:18:59;;;;;;;10.55;5.60;;;13.20;99.90;;;;;;5054204;28;20235;-77
2022/10/12 08:21:28;;;;;;;10.05;7.32;;;13.20;99.90;;;;;;5053990;28;20252;-77
2022/10/12 08:23:55;;;;;;;8.27;5.85;;;13.30;99.90;;;;;;5054567;28;20698;-76
2022/10/12 08:26:24;;;;;;;11.68;7.13;;;13.40;99.90;;;;;;5044945;28;20225;-76
2022/10/12 08:28:54;;;;;;;11.57;7.18;;;13.40;99.90;;;;;;5054278;28;20224;-76
2022/10/12 08:31:21;;;;;;;9.98;7.07;;;13.50;99.90;;;;;;5054793;28;20247;-77
2022/10/12 08:33:48;;;;;;;7.13;6.43;;;13.60;99.90;;;;;;5054475;28;20282;-77
2022/10/12 08:36:18;;;;;;;8.43;6.50;;;13.60;99.90;;;;;;5071760;28;20235;-77
2022/10/12 08:38:51;;;;;;;10.43;7.30;;;13.70;99.90;;;;;;5075300;28;20375;-76
2022/10/12 08:41:38;;;;;;;11.20;8.02;;;13.70;99.90;;;;;;5073791;28;20243;-76
2022/10/12 08:44:22;;;;;;;9.45;6.85;;;13.70;99.90;;;;;;5071565;28;20299;-77
2022/10/12 08:46:55;;;;;;;11.27;5.63;;;13.80;99.90;;;;;;5074988;28;20228;-78
2022/10/12 08:49:38;;;;;;;9.60;4.82;;;13.90;99.90;;;;;;5063676;28;20621;-77
2022/10/12 08:52:21;;;;;;;7.65;5.05;;;13.90;99.90;;;;;;5063949;28;20694;-78
2022/10/12 08:54:52;;;;;;;5.50;4.40;;;14.00;99.90;;;;;;5070294;28;20232;-76
2022/10/12 08:57:24;;;;;;;9.20;6.10;;;14.00;99.90;;;;;;5069351;28;20917;-76
2022/10/12 08:59:56;;;;;;;6.82;4.28;;;14.10;99.90;;;;;;5054225;28;20491;-77
2022/10/12 09:02:54;;;;;;;14.13;5.90;;;14.10;99.90;;;;;;5053456;28;20328;-77
2022/10/12 09:05:48;;;;;;;12.20;4.90;;;14.10;99.90;;;;;;5051037;28;21430;-77
2022/10/12 09:08:37;;;;;;;8.43;3.93;;;14.20;99.90;;;;;;5045097;28;20477;-77
2022/10/12 09:11:36;;;;;;;12.37;5.37;;;14.20;99.90;;;;;;5030758;28;20513;-78
2022/10/12 09:14:25;;;;;;;;;;;;;;;;;;;;;
2022/10/12 09:16:57;;;;;;;8.97;4.03;;;14.30;99.90;;;;;;5042671;28;20467;-77
2022/10/12 09:19:32;;;;;;;8.77;3.87;;;14.40;99.90;;;;;;5052974;28;20468;-77
2022/10/12 09:22:04;;;;;;;5.57;4.00;;;14.50;99.90;;;;;;5043371;28;20565;-77
2022/10/12 09:24:35;;;;;;;6.43;4.90;;;14.50;99.90;;;;;;5053272;28;20573;-78
2022/10/12 09:27:14;;;;;;;7.00;4.23;;;14.60;99.90;;;;;;5053529;28;20554;-77
2022/10/12 09:29:43;;;;;;;8.43;4.10;;;14.60;99.90;;;;;;5053356;28;20467;-78
2022/10/12 09:32:33;;;;;;;5.57;4.10;;;14.70;99.90;;;;;;5045408;28;20513;-77
2022/10/12 09:35:00;;;;;;;7.20;4.60;;;14.70;99.90;;;;;;5057493;28;20554;-77
2022/10/12 09:37:30;;;;;;;5.77;3.63;;;14.80;99.90;;;;;;5052938;28;20471;-77
2022/10/12 09:40:20;;;;;;;6.63;3.97;;;14.90;99.90;;;;;;5053634;28;20463;-77
2022/10/12 09:42:53;;;;;;;4.93;3.77;;;14.90;99.90;;;;;;5052849;28;20475;-76
2022/10/12 09:45:26;;;;;;;10.67;3.80;;;15.00;99.90;;;;;;5053524;28;20479;-76
2022/10/12 09:48:25;;;;;;;4.00;3.10;;;15.00;99.90;;;;;;5053568;28;20467;-77
2022/10/12 09:50:56;;;;;;;4.87;3.03;;;15.00;99.90;;;;;;4984783;28;20594;-77
2022/10/12 09:53:32;;;;;;;8.80;3.40;;;15.10;99.90;;;;;;5042355;28;20521;-77
2022/10/12 09:56:06;;;;;;;9.60;3.77;;;15.10;99.90;;;;;;5053793;28;20459;-77
2022/10/12 09:58:43;;;;;;;7.53;3.70;;;15.20;99.90;;;;;;5052420;28;20470;-76
2022/10/12 10:01:23;;;;;;;9.57;3.60;;;15.20;99.90;;;;;;5052473;28;20493;-76
2022/10/12 10:04:20;;;;;;;13.77;4.90;;;15.30;99.90;;;;;;5045784;28;20462;-76
2022/10/12 10:06:48;;;;;;;6.97;4.20;;;15.40;99.90;;;;;;5053338;28;20468;-76
2022/10/12 10:09:28;;;;;;;5.63;3.90;;;15.40;99.90;;;;;;5054482;28;20467;-78
2022/10/12 10:11:56;;;;;;;6.90;3.13;;;15.50;99.90;;;;;;5052724;28;20509;-77
2022/10/12 10:14:25;;;;;;;4.70;3.37;;;15.60;99.90;;;;;;5047781;28;20529;-77
2022/10/12 10:16:58;;;;;;;9.00;3.77;;;15.60;99.90;;;;;;5042672;28;20470;-77
2022/10/12 10:19:37;;;;;;;11.03;4.23;;;15.60;99.90;;;;;;5045937;28;20501;-77
2022/10/12 10:22:24;;;;;;;4.77;2.63;;;15.60;99.90;;;;;;5046817;28;20982;-76
2022/10/12 10:24:57;;;;;;;4.30;3.10;;;15.70;99.40;;;;;;5046032;28;20854;-77
2022/10/12 10:27:39;;;;;;;12.67;3.77;;;15.70;99.50;;;;;;5055643;28;20877;-76
2022/10/12 10:30:23;;;;;;;12.70;4.60;;;15.80;99.50;;;;;;5057570;28;20510;-76
2022/10/12 10:33:08;;;;;;;10.30;3.60;;;15.80;99.30;;;;;;5057216;28;20497;-76
2022/10/12 10:35:37;;;;;;;9.00;3.43;;;15.80;99.40;;;;;;5068799;28;20473;-77
2022/10/12 10:38:16;;;;;;;8.80;3.13;;;15.90;99.30;;;;;;5077364;28;20874;-77
2022/10/12 10:43:32;;;;;;;5.13;3.23;;;15.90;98.40;;;;;;5074757;28;20462;-77
2022/10/12 10:46:04;;;;;;;7.63;3.70;;;15.80;98.30;;;;;;5077209;28;20469;-77
2022/10/12 10:48:49;;;;;;;7.23;3.57;;;15.90;98.40;;;;;;5076768;28;20545;-77
2022/10/12 10:51:41;;;;;;;6.90;2.93;;;16.00;98.80;;;;;;5065649;28;20956;-77
2022/10/12 10:54:17;;;;;;;9.03;2.30;;;16.00;98.80;;;;;;5066582;28;20473;-76
2022/10/12 10:57:28;;;;;;;5.60;3.00;;;16.00;98.10;;;;;;5065763;28;20525;-77
2022/10/12 11:00:01;;;;;;;5.73;3.00;;;15.90;97.60;;;;;;5059949;28;20466;-77
2022/10/12 11:02:38;;;;;;;5.87;2.57;;;15.90;97.50;;;;;;5068457;28;20508;-78
2022/10/12 11:05:20;;;;;;;4.90;2.30;;;16.00;97.30;;;;;;5088390;28;20531;-77
2022/10/12 11:07:51;;;;;;;7.13;2.40;;;16.00;97.20;;;;;;5065863;28;20482;-77
2022/10/12 11:10:46;;;;;;;5.97;2.30;;;16.00;97.20;;;;;;5065043;28;20952;-76
2022/10/12 11:13:18;;;;;;;5.13;2.73;;;16.10;97.10;;;;;;5055618;28;20463;-76
2022/10/12 11:15:55;;;;;;;7.57;2.50;;;16.10;97.00;;;;;;5056617;28;20525;-77
2022/10/12 11:18:30;;;;;;;3.10;1.90;;;16.20;97.50;;;;;;5055210;28;20462;-76
2022/10/12 11:21:01;;;;;;;4.00;2.30;;;16.20;97.70;;;;;;5044926;28;20560;-77
2022/10/12 11:23:39;;;;;;;2.13;1.90;;;16.30;97.60;;;;;;5042487;28;20521;-77
2022/10/12 11:26:18;;;;;;;7.40;2.87;;;16.30;97.30;;;;;;5054846;28;20508;-77
2022/10/12 11:28:45;;;;;;;10.43;2.60;;;16.30;97.00;;;;;;5055997;28;20465;-76
2022/10/12 11:31:20;;;;;;;11.83;2.33;;;16.30;96.70;;;;;;5055482;28;20809;-76
2022/10/12 11:33:56;;;;;;;3.90;1.90;;;16.30;96.20;;;;;;5055345;28;21001;-77
2022/10/12 11:36:29;;;;;;;8.47;5.30;;;16.40;96.30;;;;;;5053152;28;20914;-77
2022/10/12 11:39:05;;;;;;;8.57;6.27;;;16.40;96.50;;;;;;5055669;28;20485;-76
2022/10/12 11:41:44;;;;;;;6.20;2.97;;;16.50;97.10;;;;;;5044203;28;20464;-77
2022/10/12 11:44:20;;;;;;;4.80;2.20;;;16.50;97.00;;;;;;5055408;28;20467;-76
2022/10/12 11:47:11;;;;;;;3.73;1.70;;;16.60;96.80;;;;;;5054591;28;21037;-77
2022/10/12 11:49:49;;;;;;;3.83;1.87;;;16.60;96.20;;;;;;5024980;28;20471;-77
2022/10/12 11:52:25;;;;;;;10.40;2.50;;;16.70;96.40;;;;;;5056812;28;20477;-77
2022/10/12 11:55:00;;;;;;;7.20;2.97;;;16.70;96.40;;;;;;5054658;28;20476;-77
2022/10/12 11:57:31;;;;;;;5.27;3.00;;;16.80;96.00;;;;;;5055145;28;20481;-76
2022/10/12 12:00:04;;;;;;;6.93;4.10;;;16.80;95.90;;;;;;5054674;28;20467;-76
2022/10/12 12:02:44;;;;;;;5.73;2.90;;;16.80;95.80;;;;;;5055439;28;20778;-76
2022/10/12 12:05:47;;;;;;;5.50;1.93;;;16.90;95.70;;;;;;5055487;28;20558;-76
2022/10/12 12:08:44;;;;;;;7.00;5.33;;;16.90;95.10;;;;;;5054277;28;20470;-76
2022/10/12 12:11:28;;;;;;;8.33;5.00;;;16.90;95.50;;;;;;5055014;28;20502;-76
2022/10/12 12:14:29;;;;;;;4.70;3.20;;;16.90;95.70;;;;;;5038840;28;20538;-76
2022/10/12 12:17:14;;;;;;;7.87;5.73;;;17.00;95.70;;;;;;5054188;28;20500;-77
2022/10/12 12:19:42;;;;;;;9.60;3.67;;;17.00;94.00;;;;;;5055548;28;20467;-77
2022/10/12 12:22:36;;;;;;;4.03;2.33;;;17.00;94.00;;;;;;5054903;28;20480;-76
2022/10/12 12:25:22;;;;;;;5.63;2.40;;;17.10;93.70;;;;;;5054409;28;20848;-76
2022/10/12 12:28:05;;;;;;;9.30;2.73;;;17.10;94.20;;;;;;5055599;28;20465;-77
2022/10/12 12:30:40;;;;;;;9.00;1.93;;;17.00;93.50;;;;;;5056651;28;20476;-77
2022/10/12 12:33:30;;;;;;;4.20;1.50;;;17.00;93.70;;;;;;5055269;28;20953;-77
2022/10/12 12:35:59;;;;;;;4.40;1.80;;;17.00;93.10;;;;;;5068246;28;20642;-77
2022/10/12 12:38:33;;;;;;;3.03;1.57;;;17.00;93.00;;;;;;5055217;28;20469;-77
2022/10/12 12:41:05;;;;;;;4.53;2.07;;;17.00;92.30;;;;;;5055285;28;20544;-76
2022/10/12 12:43:54;;;;;;;3.97;2.13;;;17.00;92.50;;;;;;5055003;28;20494;-77
2022/10/12 12:46:24;;;;;;;4.57;2.60;;;17.00;92.70;;;;;;5055022;28;20555;-77
2022/10/12 12:49:45;;;;;;;4.30;1.90;;;17.10;92.80;;;;;;5055019;28;20490;-77
2022/10/12 12:52:19;;;;;;;3.27;1.97;;;17.10;93.00;;;;;;4995267;28;20479;-76
2022/10/12 12:55:36;;;;;;;5.80;2.03;;;17.10;93.00;;;;;;4983550;28;20477;-77
2022/10/12 12:58:29;;;;;;;6.00;2.77;;;17.10;93.00;;;;;;4946212;29;20473;-76
2022/10/12 13:01:16;;;;;;;6.00;1.97;;;17.10;92.70;;;;;;5034060;28;20470;-76
2022/10/12 13:04:06;;;;;;;5.10;2.27;;;17.00;92.50;;;;;;5034958;28;20506;-77
2022/10/12 13:07:06;;;;;;;4.80;2.43;;;17.00;92.40;;;;;;5035970;28;20491;-77
2022/10/12 13:10:06;;;;;;;6.10;2.53;;;17.00;92.70;;;;;;5023051;28;20548;-77
2022/10/12 13:12:52;;;;;;;3.17;1.90;;;16.90;93.30;;;;;;5034747;28;20469;-78
2022/10/12 13:15:38;;;;;;;3.83;2.47;;;17.00;93.30;;;;;;5027844;28;20470;-76
2022/10/12 13:18:32;;;;;;;3.80;1.90;;;17.00;93.00;;;;;;5029095;28;20531;-76
2022/10/12 13:21:00;;;;;;;2.13;1.50;;;17.00;93.10;;;;;;5036142;28;20498;-76